Time;durP1;ratioP1;P1;durP2;ratioP2;P2;SDS_P1;SDS_P2;PMS_P1;PMS_P2;Temp;Humidity;BMP_temperature;BMP_pressure;BME280_temperature;BME280_humidity;BME280_pressure;Samples;Min_cycle;Max_cycle;Signal;HPM_P1;HPM_P2
2022/05/27 00:01:27;;;;;;;2.80;1.30;;;14.30;61.90;;;10.48;83.07;96208.25;5057687;28;20111;-46
2022/05/27 00:03:55;;;;;;;1.65;1.40;;;14.30;62.30;;;10.42;83.20;96202.06;5075422;28;20033;-46
2022/05/27 00:06:21;;;;;;;3.92;1.40;;;14.20;62.10;;;10.32;83.30;96180.63;5057515;28;20115;-46
2022/05/27 00:08:48;;;;;;;1.48;1.38;;;14.10;62.10;;;10.30;83.34;96184.59;5057701;28;20114;-46
2022/05/27 00:11:14;;;;;;;2.03;1.60;;;14.10;62.30;;;10.26;83.52;96191.44;5040566;28;20020;-46
2022/05/27 00:13:41;;;;;;;5.32;1.75;;;14.00;62.40;;;10.21;83.66;96208.16;5057461;28;20086;-49
2022/05/27 00:16:11;;;;;;;3.97;1.70;;;14.00;62.60;;;10.14;84.12;96200.34;5073750;28;20094;-49
2022/05/27 00:18:38;;;;;;;3.08;1.52;;;14.00;62.70;;;10.10;84.63;96199.22;5075021;28;20028;-46
2022/05/27 00:21:10;;;;;;;2.70;1.48;;;13.90;63.00;;;10.09;84.02;96189.66;5075047;28;20079;-47
2022/05/27 00:23:38;;;;;;;4.78;1.73;;;13.90;63.10;;;10.03;84.27;96187.13;5073727;28;20406;-46
2022/05/27 00:26:05;;;;;;;3.35;1.83;;;13.80;62.90;;;9.96;84.60;96180.16;5057167;28;20499;-47
2022/05/27 00:28:34;;;;;;;2.78;1.67;;;13.80;63.10;;;9.94;84.57;96182.25;5057197;28;20025;-50
2022/05/27 00:31:18;;;;;;;3.22;1.50;;;13.80;63.40;;;9.90;85.11;96182.97;5054762;28;20033;-46
2022/05/27 00:33:47;;;;;;;3.17;1.52;;;13.70;63.70;;;9.85;84.72;96175.75;5054271;28;20021;-48
2022/05/27 00:36:14;;;;;;;2.20;1.35;;;13.70;63.60;;;9.81;84.97;96177.28;5046559;28;20112;-47
2022/05/27 00:38:46;;;;;;;2.35;1.70;;;13.60;63.50;;;9.78;85.19;96176.94;5074797;28;20103;-48
2022/05/27 00:41:13;;;;;;;1.85;1.60;;;13.60;63.80;;;9.74;85.39;96184.63;5056854;28;20047;-50
2022/05/27 00:43:42;;;;;;;3.83;2.00;;;13.60;63.80;;;9.70;85.26;96189.63;5073230;28;20067;-49
2022/05/27 00:46:31;;;;;;;5.43;1.90;;;13.50;63.80;;;9.66;86.26;96190.38;5056639;28;20056;-48
2022/05/27 00:49:11;;;;;;;2.53;2.00;;;13.50;64.20;;;9.69;86.33;96197.84;5054579;28;20033;-48
2022/05/27 00:52:07;;;;;;;3.88;2.10;;;13.50;64.20;;;9.66;86.20;96201.81;5067816;28;20032;-50
2022/05/27 00:54:35;;;;;;;3.40;2.22;;;13.50;64.30;;;9.58;86.31;96182.78;5032387;28;20068;-48
2022/05/27 00:57:10;;;;;;;3.45;2.60;;;13.40;64.10;;;9.60;86.69;96196.66;5056246;28;20028;-48
2022/05/27 01:00:00;;;;;;;3.97;2.42;;;13.40;64.30;;;9.60;87.19;96188.69;5057481;28;20088;-49
2022/05/27 01:02:28;;;;;;;2.63;2.38;;;13.40;64.70;;;9.56;87.07;96193.69;5040548;28;20033;-46
2022/05/27 01:05:01;;;;;;;3.38;2.67;;;13.30;64.50;;;9.58;87.09;96188.91;5040071;28;20032;-46
2022/05/27 01:07:27;;;;;;;3.33;2.58;;;13.30;64.90;;;9.52;86.93;96187.22;5056400;28;20032;-46
2022/05/27 01:10:02;;;;;;;5.32;2.63;;;13.30;64.80;;;9.54;86.93;96192.31;5039639;28;20090;-49
2022/05/27 01:12:51;;;;;;;2.38;2.17;;;13.30;65.10;;;9.50;87.07;96192.00;5053623;28;20116;-47
2022/05/27 01:15:28;;;;;;;4.32;2.10;;;13.30;65.10;;;9.49;87.15;96193.03;5060230;28;20039;-55
2022/05/27 01:18:02;;;;;;;3.08;2.38;;;13.20;65.10;;;9.45;86.96;96187.38;5019706;28;20618;-47
2022/05/27 01:20:53;;;;;;;4.35;2.40;;;13.20;65.10;;;9.40;87.69;96182.00;5052119;28;20035;-46
2022/05/27 01:24:23;;;;;;;4.13;2.30;;;13.20;65.60;;;9.42;87.91;96179.88;5073308;28;20051;-47
2022/05/27 01:28:03;;;;;;;3.95;2.90;;;13.20;65.70;;;9.39;87.87;96176.91;5053099;28;20448;-46
2022/05/27 01:30:42;;;;;;;3.60;2.58;;;13.20;65.70;;;9.38;87.55;96168.13;4994428;28;20271;-46
2022/05/27 01:33:51;;;;;;;3.80;2.72;;;13.20;65.40;;;9.37;87.58;96173.69;5055679;28;20099;-46
2022/05/27 01:36:37;;;;;;;3.78;2.50;;;13.10;65.60;;;9.35;87.58;96170.47;5054477;28;20076;-54
2022/05/27 01:39:46;;;;;;;4.03;2.50;;;13.10;65.70;;;9.30;87.58;96175.69;5073004;28;20032;-47
2022/05/27 01:42:27;;;;;;;6.40;2.80;;;13.10;65.80;;;9.28;87.76;96181.28;5071139;28;20119;-48
2022/05/27 01:45:07;;;;;;;4.72;2.50;;;13.10;65.80;;;9.24;87.69;96172.97;5072327;28;20043;-49
2022/05/27 01:47:50;;;;;;;4.95;2.67;;;13.10;65.80;;;9.21;88.63;96184.09;5047584;28;20372;-46
2022/05/27 01:50:55;;;;;;;5.22;3.38;;;13.00;66.10;;;9.26;89.30;96180.69;5055094;28;20020;-45
2022/05/27 01:54:01;;;;;;;3.20;2.47;;;13.10;66.70;;;9.29;88.36;96180.22;5057272;28;20074;-47
2022/05/27 01:56:56;;;;;;;6.07;3.00;;;13.10;66.50;;;9.21;88.54;96172.63;5055469;28;20029;-48
2022/05/27 01:59:57;;;;;;;5.60;2.60;;;13.00;66.40;;;9.22;88.32;96169.75;5038688;28;20051;-52
2022/05/27 02:02:27;;;;;;;3.38;2.42;;;13.00;66.70;;;9.23;87.84;96174.00;5072022;28;20067;-48
2022/05/27 02:05:21;;;;;;;5.05;2.53;;;13.00;66.30;;;9.22;87.83;96175.06;5038126;28;20036;-48
2022/05/27 02:08:30;;;;;;;5.53;2.58;;;13.00;66.60;;;9.19;87.89;96169.44;5055222;28;20108;-47
2022/05/27 02:11:19;;;;;;;2.60;2.40;;;13.00;66.50;;;9.16;87.82;96175.22;5071719;28;20395;-49
2022/05/27 02:14:49;;;;;;;3.75;2.95;;;13.00;66.40;;;9.12;87.92;96169.59;5072179;28;20032;-48
2022/05/27 02:17:56;;;;;;;3.60;2.55;;;13.00;66.40;;;9.10;88.30;96173.53;4971252;28;20446;-49
2022/05/27 02:20:34;;;;;;;4.70;2.47;;;12.90;66.40;;;9.07;88.62;96164.19;4968442;28;20049;-50
2022/05/27 02:23:28;;;;;;;4.05;2.83;;;12.90;66.50;;;9.06;88.64;96162.56;5054215;28;20037;-51
2022/05/27 02:25:55;;;;;;;4.00;3.05;;;12.90;66.60;;;9.02;88.70;96167.56;5018401;28;20032;-49
2022/05/27 02:28:41;;;;;;;3.70;2.65;;;12.90;66.50;;;9.01;88.61;96173.09;5054179;28;20103;-47
2022/05/27 02:31:32;;;;;;;4.28;3.00;;;12.90;66.90;;;8.95;88.79;96169.56;5054100;28;20538;-48
2022/05/27 02:37:29;;;;;;;4.55;3.30;;;12.80;67.00;;;8.97;89.85;96175.44;5072114;28;20112;-49
2022/05/27 02:40:05;;;;;;;5.72;3.25;;;12.80;66.90;;;9.02;89.44;96185.34;5037607;28;20399;-48
2022/05/27 02:43:04;;;;;;;4.35;3.20;;;12.80;67.30;;;9.02;89.87;96177.38;5053658;28;20495;-48
2022/05/27 02:45:30;;;;;;;6.55;3.80;;;12.80;67.40;;;9.06;90.79;96181.19;5053668;28;20086;-47
2022/05/27 02:48:24;;;;;;;6.80;3.22;;;12.80;67.50;;;9.10;90.27;96179.66;5058159;28;20045;-51
2022/05/27 02:51:09;;;;;;;3.72;3.25;;;12.80;67.90;;;9.14;90.14;96188.75;5071330;28;20564;-53
2022/05/27 02:54:06;;;;;;;4.32;3.17;;;12.90;68.00;;;9.15;90.11;96173.59;5054486;28;20027;-52
2022/05/27 02:57:09;;;;;;;3.33;2.80;;;12.90;68.10;;;9.19;89.98;96183.53;5070466;28;20032;-52
2022/05/27 02:59:42;;;;;;;4.75;2.92;;;12.90;68.00;;;9.21;89.97;96185.91;5052322;28;20044;-56
2022/05/27 03:02:12;;;;;;;4.03;3.00;;;12.90;67.70;;;9.19;90.13;96180.88;5046674;28;20043;-54
2022/05/27 03:04:49;;;;;;;6.28;2.70;;;13.00;68.00;;;9.28;90.10;96186.59;5038153;28;20033;-54
2022/05/27 03:07:49;;;;;;;4.57;2.50;;;13.00;68.10;;;9.29;89.71;96182.06;5054611;28;20055;-55
2022/05/27 03:10:30;;;;;;;3.42;2.75;;;13.10;68.20;;;9.27;89.68;96185.78;5072101;28;20047;-54
2022/05/27 03:13:40;;;;;;;5.13;2.92;;;13.10;68.00;;;9.30;89.63;96178.38;5055804;28;20033;-54
2022/05/27 03:16:32;;;;;;;3.92;2.50;;;13.10;68.20;;;9.32;89.73;96178.94;5052138;28;20096;-53
2022/05/27 03:19:54;;;;;;;4.27;2.43;;;13.10;68.00;;;9.30;89.25;96175.69;5052206;28;20044;-57
2022/05/27 03:22:48;;;;;;;5.15;2.33;;;13.10;68.00;;;9.28;89.46;96170.66;5052058;28;20028;-56
2022/05/27 03:25:35;;;;;;;4.38;2.20;;;13.10;67.80;;;9.26;89.45;96175.38;5055400;28;20037;-54
2022/05/27 03:28:20;;;;;;;4.13;2.65;;;13.10;68.00;;;9.27;89.58;96185.78;5052587;28;20103;-56
2022/05/27 03:32:00;;;;;;;3.10;2.33;;;13.10;68.10;;;9.30;89.68;96181.81;5072099;28;20439;-55
2022/05/27 03:34:33;;;;;;;5.75;2.60;;;13.10;68.30;;;9.26;89.52;96172.72;4961788;28;20039;-56
2022/05/27 03:37:34;;;;;;;5.22;2.50;;;13.10;67.80;;;9.24;89.99;96180.97;5069357;28;20650;-55
2022/05/27 03:40:30;;;;;;;10.65;2.90;;;13.10;68.10;;;9.26;89.72;96183.34;5055671;28;20036;-53
2022/05/27 03:42:57;;;;;;;4.15;3.03;;;13.10;68.10;;;9.21;89.32;96172.63;5039714;28;20055;-52
2022/05/27 03:45:24;;;;;;;5.22;2.80;;;13.10;67.80;;;9.22;89.20;96171.59;5054049;28;20459;-52
2022/05/27 03:47:52;;;;;;;5.28;2.55;;;13.10;67.90;;;9.19;88.87;96177.41;5037320;28;20400;-53
2022/05/27 03:50:40;;;;;;;6.53;3.20;;;13.10;67.80;;;9.17;88.81;96179.50;5070584;28;20051;-52
2022/05/27 03:53:06;;;;;;;5.95;3.20;;;13.10;68.10;;;9.12;89.09;96180.22;5053903;28;20028;-53
2022/05/27 03:55:49;;;;;;;7.20;3.30;;;13.00;67.70;;;9.11;90.01;96189.22;5071759;28;20036;-53
2022/05/27 03:58:27;;;;;;;7.03;3.13;;;13.00;68.10;;;9.17;90.65;96187.47;5071375;28;20103;-51
2022/05/27 04:00:53;;;;;;;4.50;2.95;;;13.10;68.40;;;9.19;90.02;96185.38;5071617;28;20099;-52
2022/05/27 04:03:21;;;;;;;7.78;3.65;;;13.10;68.10;;;9.15;90.92;96189.53;5072118;28;20147;-52
2022/05/27 04:05:47;;;;;;;6.38;3.60;;;13.10;68.50;;;9.22;90.95;96187.56;5071858;28;20384;-53
2022/05/27 04:08:12;;;;;;;6.47;2.92;;;13.10;68.60;;;9.29;90.91;96195.38;5074333;28;20025;-53
2022/05/27 04:10:38;;;;;;;6.60;3.20;;;13.20;68.90;;;9.38;90.89;96189.41;5057419;28;20125;-48
2022/05/27 04:13:05;;;;;;;8.52;3.20;;;13.30;68.90;;;9.47;90.59;96187.16;5057515;28;20035;-50
2022/05/27 04:15:33;;;;;;;4.68;3.17;;;13.40;68.90;;;9.55;90.89;96191.25;5075081;28;20160;-50
2022/05/27 04:18:02;;;;;;;3.10;2.80;;;13.50;69.00;;;9.63;90.83;96182.88;5075126;28;20043;-49
2022/05/27 04:20:37;;;;;;;4.97;2.72;;;13.60;69.10;;;9.76;90.35;96173.75;5057387;28;20033;-52
2022/05/27 04:23:06;;;;;;;5.20;2.85;;;13.70;69.10;;;9.81;90.33;96176.47;5075003;28;20062;-48
2022/05/27 04:25:38;;;;;;;4.05;2.88;;;13.80;68.80;;;9.94;90.30;96181.44;5073579;28;20025;-48
2022/05/27 04:28:07;;;;;;;7.80;2.95;;;13.90;68.90;;;10.09;89.73;96184.31;5057278;28;20479;-50
2022/05/27 04:30:35;;;;;;;4.00;2.35;;;13.90;68.70;;;10.25;89.48;96187.97;5074855;28;20036;-53
2022/05/27 04:33:03;;;;;;;3.92;2.60;;;14.00;68.60;;;10.47;89.07;96184.53;5074969;28;20043;-49
2022/05/27 04:35:30;;;;;;;3.15;2.33;;;14.20;68.50;;;10.74;89.34;96185.34;5056830;28;20025;-50
2022/05/27 04:38:05;;;;;;;2.60;2.15;;;14.30;68.20;;;11.02;88.68;96181.63;5056676;28;20051;-50
2022/05/27 04:40:37;;;;;;;4.55;2.30;;;14.50;68.20;;;11.31;87.90;96181.34;5037082;28;20029;-49
2022/05/27 04:43:09;;;;;;;3.35;2.20;;;14.70;67.90;;;11.58;87.18;96184.78;5051472;28;20044;-49
2022/05/27 04:45:41;;;;;;;4.43;2.97;;;14.90;67.60;;;11.85;86.33;96191.94;5056871;28;20036;-51
2022/05/27 04:48:08;;;;;;;6.10;4.05;;;15.10;67.40;;;12.08;84.12;96187.25;5072932;28;20067;-48
2022/05/27 04:50:40;;;;;;;5.32;2.63;;;15.30;67.10;;;12.32;83.41;96179.66;5074865;28;20086;-52
2022/05/27 04:53:14;;;;;;;5.00;3.20;;;15.50;66.90;;;12.64;81.74;96182.16;5056721;28;20036;-51
2022/05/27 04:55:46;;;;;;;4.35;2.60;;;15.70;66.40;;;12.99;79.74;96177.97;5040922;28;20768;-51
2022/05/27 04:58:18;;;;;;;3.97;2.47;;;16.00;66.10;;;13.22;77.36;96166.75;5056435;28;20420;-50
2022/05/27 05:00:47;;;;;;;3.92;2.33;;;16.20;65.70;;;13.37;77.80;96163.31;5056365;28;20036;-49
2022/05/27 05:03:13;;;;;;;5.57;2.25;;;16.40;65.20;;;13.57;76.79;96168.66;5056708;28;20036;-50
2022/05/27 05:05:51;;;;;;;2.53;1.83;;;16.60;64.80;;;13.81;76.39;96184.94;5056706;28;20414;-49
2022/05/27 05:08:38;;;;;;;3.38;1.70;;;16.90;64.40;;;14.05;73.16;96177.16;5074444;28;20029;-52
2022/05/27 05:11:06;;;;;;;3.60;1.60;;;17.10;63.90;;;14.18;72.98;96170.41;5074118;28;20024;-49
2022/05/27 05:13:33;;;;;;;4.03;1.90;;;17.40;63.50;;;14.43;72.36;96174.09;5074316;28;20414;-51
2022/05/27 05:16:00;;;;;;;3.97;1.65;;;17.60;62.90;;;14.65;70.91;96179.09;5056198;28;20460;-52
2022/05/27 05:18:38;;;;;;;3.85;1.83;;;17.80;62.40;;;14.94;69.99;96177.31;5073644;28;20090;-50
2022/05/27 05:21:03;;;;;;;3.55;2.00;;;18.20;61.80;;;15.24;69.09;96184.38;5066651;28;20029;-51
2022/05/27 05:23:29;;;;;;;1.60;1.50;;;18.40;61.20;;;15.60;67.23;96194.84;5061693;28;20053;-49
2022/05/27 05:25:55;;;;;;;1.98;1.30;;;18.70;60.40;;;15.93;65.59;96184.38;5034723;28;20044;-49
2022/05/27 05:28:21;;;;;;;3.25;1.80;;;18.90;59.70;;;16.24;65.08;96189.47;5064501;28;20044;-49
2022/05/27 05:30:49;;;;;;;1.70;1.23;;;19.20;59.30;;;16.54;62.90;96185.59;5073816;28;20028;-49
2022/05/27 05:33:15;;;;;;;2.03;1.52;;;19.50;58.60;;;16.78;61.92;96196.38;5067019;28;20395;-50
2022/05/27 05:35:41;;;;;;;1.85;1.30;;;19.80;58.10;;;17.04;60.87;96188.75;5073580;28;20031;-52
2022/05/27 05:38:07;;;;;;;2.05;1.23;;;20.00;57.60;;;17.22;60.97;96190.63;5073567;28;20032;-50
2022/05/27 05:40:42;;;;;;;3.75;1.60;;;20.30;57.20;;;17.46;60.23;96189.75;5055642;28;20471;-50
2022/05/27 05:43:14;;;;;;;4.13;1.48;;;20.60;56.60;;;17.66;59.38;96194.78;5073649;28;20024;-49
2022/05/27 05:45:40;;;;;;;2.00;1.33;;;20.80;56.10;;;17.93;59.43;96188.72;5073482;28;20043;-49
2022/05/27 05:48:07;;;;;;;3.33;1.40;;;21.00;55.60;;;18.16;58.50;96188.84;5073390;28;20083;-50
2022/05/27 05:50:35;;;;;;;2.70;1.48;;;21.30;55.20;;;18.32;58.31;96190.16;5064559;28;20025;-49
2022/05/27 05:53:03;;;;;;;1.30;1.10;;;21.50;54.60;;;18.47;57.79;96180.97;5034942;28;20029;-49
2022/05/27 05:55:36;;;;;;;1.92;1.30;;;21.80;54.20;;;18.56;56.82;96189.97;5052186;28;20025;-51
2022/05/27 05:58:03;;;;;;;1.95;1.58;;;22.00;53.50;;;18.57;57.02;96194.25;5058696;28;20515;-49
2022/05/27 06:00:29;;;;;;;4.20;1.70;;;22.20;52.80;;;18.63;56.36;96197.66;5030809;28;20052;-49
2022/05/27 06:02:55;;;;;;;2.97;1.30;;;22.30;52.00;;;18.95;55.67;96196.75;5051639;28;20070;-52
2022/05/27 06:05:23;;;;;;;1.73;1.35;;;22.50;51.70;;;19.07;55.13;96199.72;5027110;28;20064;-49
2022/05/27 06:07:50;;;;;;;3.22;1.30;;;22.70;51.40;;;19.08;54.77;96206.69;5046145;28;20024;-52
2022/05/27 06:10:17;;;;;;;2.85;1.38;;;22.90;50.80;;;18.95;55.12;96207.53;5053432;28;20039;-50
2022/05/27 06:12:43;;;;;;;2.38;1.50;;;23.00;50.10;;;18.87;55.54;96208.25;5063262;28;20370;-51
2022/05/27 06:15:13;;;;;;;2.10;1.27;;;23.20;49.60;;;18.82;55.28;96202.97;5055029;28;20028;-49
2022/05/27 06:17:39;;;;;;;2.60;1.67;;;23.30;49.00;;;18.96;55.22;96211.84;5054971;28;20483;-49
2022/05/27 06:20:09;;;;;;;1.63;1.50;;;23.40;48.90;;;18.97;54.72;96201.84;5054960;28;20035;-49
2022/05/27 06:22:44;;;;;;;3.53;1.67;;;23.50;48.40;;;19.24;55.00;96212.59;5038291;28;20028;-49
2022/05/27 06:25:11;;;;;;;3.95;1.50;;;23.60;48.20;;;19.55;54.83;96203.75;5039149;28;20073;-49
2022/05/27 06:27:46;;;;;;;3.40;1.73;;;23.80;48.20;;;19.90;53.87;96207.56;5055020;28;20085;-49
2022/05/27 06:35:56;;;;;;;3.55;1.70;;;24.60;47.20;;;20.35;51.75;96199.34;5072560;28;20035;-49
2022/05/27 06:38:25;;;;;;;2.73;1.77;;;24.80;46.60;;;20.54;51.78;96204.53;5054823;28;20033;-51
2022/05/27 06:40:57;;;;;;;2.97;1.90;;;25.00;46.20;;;20.61;50.65;96210.28;5072451;28;20020;-49
2022/05/27 06:43:25;;;;;;;2.22;1.48;;;25.30;45.80;;;20.73;50.63;96204.28;5072557;28;20032;-46
2022/05/27 06:45:54;;;;;;;2.38;1.60;;;25.50;45.20;;;20.76;50.54;96209.06;5054518;28;20056;-47
2022/05/27 06:48:20;;;;;;;2.97;1.48;;;25.50;44.80;;;20.64;50.15;96208.88;5054719;28;20033;-47
2022/05/27 06:50:49;;;;;;;4.57;1.60;;;25.50;44.20;;;20.58;49.49;96208.19;5072194;28;20035;-47
2022/05/27 06:53:17;;;;;;;4.03;1.60;;;25.60;43.60;;;20.60;49.00;96200.56;5054117;28;20048;-48
2022/05/27 06:55:53;;;;;;;3.30;1.45;;;25.70;43.00;;;20.68;49.77;96194.41;5072325;28;20060;-50
2022/05/27 06:58:19;;;;;;;1.80;1.40;;;25.90;42.30;;;20.83;48.88;96195.84;5072125;28;20024;-49
2022/05/27 07:00:47;;;;;;;2.55;1.70;;;26.10;42.10;;;20.99;48.50;96188.88;5072515;28;20017;-49
2022/05/27 07:03:13;;;;;;;1.67;1.58;;;26.20;41.60;;;21.02;48.12;96199.06;5054528;28;20035;-52
2022/05/27 07:05:39;;;;;;;5.45;1.60;;;26.40;41.40;;;21.14;48.42;96193.03;5071980;28;20058;-48
2022/05/27 07:08:10;;;;;;;1.70;1.23;;;26.50;41.00;;;21.33;48.07;96194.66;5072142;28;20556;-49
2022/05/27 07:10:35;;;;;;;2.55;1.85;;;26.70;40.60;;;21.18;47.18;96199.41;5054386;28;20399;-49
2022/05/27 07:13:02;;;;;;;3.95;1.33;;;26.90;40.10;;;20.98;48.65;96186.50;5070909;28;20032;-51
2022/05/27 07:15:39;;;;;;;2.88;1.50;;;26.90;39.60;;;21.25;48.25;96185.41;5077976;28;20030;-53
2022/05/27 07:18:08;;;;;;;3.55;1.90;;;27.10;39.40;;;21.62;47.61;96189.41;5053709;28;20032;-48
2022/05/27 07:20:46;;;;;;;3.65;1.70;;;27.20;39.40;;;21.61;46.62;96189.72;5070039;28;20179;-51
2022/05/27 07:23:17;;;;;;;2.63;1.50;;;27.40;38.90;;;21.47;47.03;96195.31;5070966;28;20417;-50
2022/05/27 07:25:46;;;;;;;1.42;1.27;;;27.60;38.20;;;21.11;47.59;96199.09;5051277;28;20040;-52
2022/05/27 07:28:13;;;;;;;3.03;1.77;;;27.70;37.60;;;21.30;47.40;96201.50;5064391;28;20529;-50
2022/05/27 07:30:39;;;;;;;2.95;1.65;;;27.80;37.50;;;21.36;47.44;96205.66;5069721;28;20059;-50
2022/05/27 07:33:11;;;;;;;2.45;1.83;;;27.90;37.10;;;21.44;47.26;96191.34;5069541;28;20051;-49
2022/05/27 07:35:58;;;;;;;2.40;1.50;;;28.20;36.80;;;21.71;46.48;96190.19;5053151;28;20435;-48
2022/05/27 07:38:30;;;;;;;4.18;1.70;;;28.30;36.70;;;21.81;46.55;96197.22;5071128;28;20438;-48
2022/05/27 07:41:02;;;;;;;3.55;1.60;;;28.50;36.50;;;22.04;46.17;96189.66;5071634;28;20032;-48
2022/05/27 07:43:28;;;;;;;3.20;1.40;;;28.60;36.40;;;22.48;46.16;96184.91;5074593;28;20036;-49
2022/05/27 07:46:01;;;;;;;2.10;1.42;;;28.80;36.60;;;22.70;44.17;96186.56;5056936;28;20040;-49
2022/05/27 07:48:26;;;;;;;2.92;1.38;;;29.00;36.20;;;22.58;45.16;96181.81;5044731;28;20031;-53
2022/05/27 07:50:55;;;;;;;2.70;1.70;;;29.10;35.90;;;22.69;44.59;96195.00;5074958;28;20043;-49
2022/05/27 07:53:22;;;;;;;3.15;1.60;;;29.30;35.50;;;23.12;43.65;96180.41;5074567;28;20070;-49
2022/05/27 07:55:48;;;;;;;2.08;1.45;;;29.50;35.30;;;23.49;42.66;96179.47;5057043;28;20034;-51
2022/05/27 07:58:13;;;;;;;1.48;1.30;;;29.70;35.10;;;23.61;42.89;96170.59;5074983;28;20414;-49
2022/05/27 08:00:42;;;;;;;2.97;1.70;;;29.80;34.80;;;23.07;43.50;96159.69;5074932;28;20062;-50
2022/05/27 08:03:14;;;;;;;3.63;1.55;;;30.10;33.90;;;22.92;43.90;96177.31;5056537;28;20025;-50
2022/05/27 08:05:43;;;;;;;3.10;1.40;;;30.00;33.40;;;23.06;43.71;96171.66;5056610;28;20028;-51
2022/05/27 08:08:09;;;;;;;1.65;1.40;;;30.10;33.40;;;23.22;42.73;96171.84;5073257;28;20110;-51
2022/05/27 08:10:43;;;;;;;4.10;1.50;;;30.20;33.30;;;23.21;43.86;96173.78;5074526;28;20028;-49
2022/05/27 08:13:09;;;;;;;4.18;1.67;;;30.30;33.10;;;23.33;42.73;96167.63;5074191;28;20028;-49
2022/05/27 08:15:38;;;;;;;3.80;1.80;;;30.60;32.60;;;23.46;42.92;96169.25;5061550;28;20028;-48
2022/05/27 08:18:05;;;;;;;1.88;1.77;;;30.80;32.10;;;24.05;41.78;96162.81;5056609;28;20490;-49
2022/05/27 08:20:34;;;;;;;2.47;2.13;;;31.00;32.30;;;23.85;41.87;96171.81;5056569;28;20024;-49
2022/05/27 08:23:04;;;;;;;1.63;1.52;;;31.10;31.80;;;23.65;42.69;96176.94;5055843;28;20066;-50
2022/05/27 08:25:33;;;;;;;2.85;1.88;;;30.90;31.70;;;23.69;42.88;96161.59;5074067;28;20037;-53
2022/05/27 08:27:59;;;;;;;4.82;2.75;;;30.60;32.20;;;23.55;42.24;96169.19;5056641;28;20459;-50
2022/05/27 08:30:30;;;;;;;3.67;1.73;;;30.60;32.10;;;23.87;42.14;96161.41;5072998;28;20071;-51
2022/05/27 08:32:57;;;;;;;2.10;1.80;;;30.80;32.10;;;24.35;41.72;96152.53;5056331;28;20107;-49
2022/05/27 08:38:21;;;;;;;1.90;1.45;;;31.40;31.70;;;24.79;40.67;96149.25;5074482;28;20035;-52
2022/05/27 08:41:20;;;;;;;1.90;1.73;;;31.60;31.50;;;25.14;40.22;96139.47;5040392;28;20082;-50
2022/05/27 08:44:11;;;;;;;3.47;2.67;;;31.90;31.30;;;25.19;39.21;96146.59;5073498;28;20423;-48
2022/05/27 08:47:30;;;;;;;2.67;2.05;;;32.30;30.80;;;24.72;40.18;96147.09;5053622;28;20429;-49
2022/05/27 08:50:51;;;;;;;2.40;2.00;;;32.10;30.70;;;24.42;41.43;96143.84;5060598;23;20132;-54
2022/05/27 08:53:46;;;;;;;2.10;1.90;;;32.00;30.50;;;24.78;41.14;96144.94;5013792;28;20490;-52
2022/05/27 08:59:44;;;;;;;3.22;1.77;;;31.80;31.20;;;25.01;40.24;96146.06;5027815;28;20076;-57
2022/05/27 09:02:14;;;;;;;4.93;2.10;;;31.60;31.10;;;25.18;39.79;96142.28;5018843;28;20108;-56
2022/05/27 09:05:34;;;;;;;2.80;2.00;;;31.50;31.10;;;24.80;41.61;96134.50;5034392;28;20484;-55
2022/05/27 09:08:16;;;;;;;3.30;2.00;;;31.30;31.20;;;24.73;40.25;96143.25;5034196;28;20037;-57
2022/05/27 09:11:27;;;;;;;2.95;1.85;;;31.50;30.80;;;24.86;40.94;96144.03;5016418;28;20114;-58
2022/05/27 09:14:24;;;;;;;2.88;1.88;;;31.70;30.60;;;25.24;39.38;96137.41;5034060;28;20036;-57
2022/05/27 09:17:06;;;;;;;2.20;1.63;;;32.10;30.20;;;25.30;38.89;96133.28;5034194;28;20061;-57
2022/05/27 09:20:06;;;;;;;2.55;1.83;;;32.30;29.90;;;25.57;39.46;96129.78;5000343;28;20035;-57
2022/05/27 09:23:21;;;;;;;3.28;1.90;;;32.50;29.70;;;26.15;38.21;96137.53;5019861;28;20033;-58
2022/05/27 09:26:24;;;;;;;2.72;2.03;;;33.00;29.70;;;26.27;37.58;96136.69;5030952;28;20030;-55
2022/05/27 09:29:46;;;;;;;3.17;1.95;;;33.40;29.40;;;26.76;37.06;96134.38;5034062;28;20028;-58
2022/05/27 09:32:47;;;;;;;3.42;1.90;;;33.80;29.10;;;26.76;36.54;96137.09;5033893;28;20084;-57
2022/05/27 09:35:58;;;;;;;2.17;1.80;;;34.40;28.50;;;26.25;37.27;96136.22;5018580;28;20107;-58
2022/05/27 09:38:34;;;;;;;2.72;1.75;;;34.30;28.10;;;26.68;36.96;96124.41;4990121;28;20069;-56
2022/05/27 09:41:25;;;;;;;3.83;1.98;;;34.30;28.00;;;26.66;36.53;96139.56;5032759;28;20033;-57
2022/05/27 09:44:14;;;;;;;1.88;1.70;;;34.40;27.90;;;26.01;37.39;96126.25;5016732;28;20053;-56
2022/05/27 09:46:39;;;;;;;3.85;2.00;;;34.10;27.80;;;26.61;37.98;96132.47;5018887;28;20446;-54
2022/05/27 09:49:05;;;;;;;2.45;1.85;;;33.90;28.10;;;26.89;36.55;96120.56;4999309;28;20048;-55
2022/05/27 09:51:37;;;;;;;4.70;1.75;;;33.80;28.20;;;27.19;35.68;96123.59;5052636;28;20115;-56
2022/05/27 09:54:45;;;;;;;3.05;2.00;;;33.90;28.20;;;27.47;35.69;96130.81;5035543;28;20091;-56
2022/05/27 09:57:10;;;;;;;3.47;2.00;;;34.10;28.20;;;27.27;35.66;96130.03;5037892;28;20041;-56
2022/05/27 09:59:40;;;;;;;1.80;1.70;;;34.30;27.90;;;27.23;36.63;96135.38;5053200;28;20024;-54
2022/05/27 10:02:36;;;;;;;2.55;1.90;;;34.30;27.90;;;27.54;35.44;96128.19;5019131;28;20040;-53
2022/05/27 10:05:30;;;;;;;1.92;1.42;;;34.40;27.90;;;27.34;35.88;96124.69;5019488;28;20025;-57
2022/05/27 10:08:05;;;;;;;2.33;2.10;;;34.60;27.50;;;27.08;36.03;96125.31;5016681;28;20526;-56
2022/05/27 10:10:36;;;;;;;3.17;1.80;;;34.70;27.20;;;26.96;35.81;96110.59;5040295;28;20033;-54
2022/05/27 10:13:30;;;;;;;2.17;1.73;;;34.70;27.00;;;27.34;35.77;96114.53;5018823;28;20113;-55
2022/05/27 10:16:25;;;;;;;1.85;1.67;;;34.70;27.10;;;27.86;35.30;96109.66;5053110;28;20057;-56
2022/05/27 10:19:22;;;;;;;2.95;2.20;;;34.70;27.30;;;27.75;35.13;96112.19;5053436;28;20377;-56
2022/05/27 10:22:20;;;;;;;1.77;1.67;;;34.90;27.10;;;27.88;36.36;96112.84;5036596;28;20021;-55
2022/05/27 10:25:16;;;;;;;3.05;1.90;;;35.00;27.20;;;28.31;34.59;96102.63;5030015;28;20470;-57
2022/05/27 10:27:54;;;;;;;2.28;2.10;;;35.20;27.20;;;27.96;35.40;96100.09;5019678;28;20048;-55
2022/05/27 10:30:27;;;;;;;4.15;1.83;;;35.40;27.00;;;28.29;35.01;96100.25;5072720;28;20025;-55
2022/05/27 10:33:39;;;;;;;4.65;2.00;;;35.60;26.90;;;27.95;34.90;96102.00;5072669;28;20031;-56
2022/05/27 10:36:21;;;;;;;;;;;35.60;26.60;;;27.43;36.58;96101.44;5072723;28;20027;-53
2022/05/27 10:39:51;;;;;;;2.00;1.80;;;35.50;26.60;;;27.67;35.66;96100.34;5054731;28;19954;-56
2022/05/27 10:43:08;;;;;;;3.05;1.90;;;35.40;26.60;;;28.06;35.42;96092.06;5054117;28;20044;-52
2022/05/27 10:45:47;;;;;;;2.95;1.98;;;35.50;26.80;;;28.13;35.00;96096.84;5049993;28;20086;-56
2022/05/27 10:48:47;;;;;;;2.85;2.20;;;35.70;26.70;;;28.02;35.08;96095.91;5072380;28;20125;-56
2022/05/27 10:51:37;;;;;;;2.63;1.95;;;35.80;26.60;;;27.94;35.63;96088.72;5048901;28;20075;-57
2022/05/27 10:54:33;;;;;;;2.08;1.80;;;35.70;26.60;;;27.91;35.13;96090.22;5040691;28;20463;-58
2022/05/27 11:04:12;;;;;;;5.15;2.00;;;35.50;26.70;;;27.84;34.89;96099.09;4949263;28;20071;-58
2022/05/27 11:07:09;;;;;;;2.72;1.85;;;35.60;26.50;;;27.97;34.82;96087.97;5052232;28;20040;-56
2022/05/27 11:10:22;;;;;;;3.95;2.10;;;35.60;26.30;;;27.92;35.62;96089.06;5051956;28;20025;-55
2022/05/27 11:16:15;;;;;;;2.38;2.17;;;35.80;26.30;;;28.47;33.93;96080.59;5051468;28;20534;-58
2022/05/27 11:18:54;;;;;;;4.13;2.00;;;36.00;26.30;;;28.23;34.12;96074.31;5017866;28;20025;-55
2022/05/27 11:21:55;;;;;;;2.75;1.60;;;36.00;26.00;;;28.52;34.22;96077.56;5052050;28;20490;-57
2022/05/27 11:25:01;;;;;;;2.75;1.77;;;36.10;26.00;;;28.16;34.71;96068.75;5036967;28;20033;-56
2022/05/27 11:28:07;;;;;;;3.38;2.03;;;36.10;25.80;;;28.37;34.86;96077.31;5052307;28;20349;-58
2022/05/27 11:31:18;;;;;;;1.95;1.77;;;36.20;25.70;;;28.83;33.89;96074.47;5051846;28;20059;-53
2022/05/27 11:34:31;;;;;;;3.20;1.80;;;36.30;25.90;;;28.83;34.19;96068.19;5051765;28;20025;-55
2022/05/27 11:37:32;;;;;;;2.22;1.88;;;36.50;25.80;;;28.80;33.23;96071.66;5034646;28;20040;-55
2022/05/27 11:40:07;;;;;;;4.72;1.92;;;36.70;25.60;;;28.98;33.54;96063.69;5035598;28;20420;-57
2022/05/27 11:43:18;;;;;;;2.55;2.05;;;36.90;25.50;;;28.80;33.21;96068.94;5051790;28;20056;-57